Time;durP1;ratioP1;P1;durP2;ratioP2;P2;SDS_P1;SDS_P2;PMS_P1;PMS_P2;Temp;Humidity;BMP_temperature;BMP_pressure;BME280_temperature;BME280_humidity;BME280_pressure;Samples;Min_cycle;Max_cycle;Signal;HPM_P1;HPM_P2
2023/07/24 00:01:45;;;;;;;10.15;9.15;;;19.80;99.90;;;;;;4184428;28;20040;-54
2023/07/24 00:04:05;;;;;;;11.13;10.10;;;19.80;99.90;;;;;;4184634;28;20073;-54
2023/07/24 00:06:25;;;;;;;11.02;9.98;;;19.80;99.90;;;;;;4185941;28;20048;-54
2023/07/24 00:08:45;;;;;;;14.23;10.55;;;19.70;99.90;;;;;;4184446;28;20055;-54
2023/07/24 00:11:08;;;;;;;12.55;11.38;;;19.70;99.90;;;;;;4187169;28;20083;-54
2023/07/24 00:13:29;;;;;;;11.15;9.90;;;19.30;99.90;;;;;;4183278;28;20052;-54
2023/07/24 00:15:48;;;;;;;11.40;10.20;;;19.20;99.90;;;;;;4181898;28;20056;-54
2023/07/24 00:18:09;;;;;;;11.70;9.82;;;19.50;99.90;;;;;;4183190;28;20044;-55
2023/07/24 00:20:29;;;;;;;10.50;9.50;;;19.70;99.90;;;;;;4184569;28;20056;-54
2023/07/24 00:22:48;;;;;;;12.45;11.13;;;19.70;99.90;;;;;;4188533;28;20059;-54
2023/07/24 00:25:09;;;;;;;11.85;10.63;;;19.60;99.90;;;;;;4178093;28;20072;-54
2023/07/24 00:27:29;;;;;;;10.93;10.00;;;19.40;99.90;;;;;;4177449;28;20052;-54
2023/07/24 00:29:48;;;;;;;11.82;9.88;;;19.20;99.90;;;;;;4180265;28;20048;-54
2023/07/24 00:32:08;;;;;;;10.25;9.35;;;19.20;99.90;;;;;;4180846;28;20052;-54
2023/07/24 00:34:28;;;;;;;12.18;11.02;;;19.30;99.90;;;;;;4178460;28;20283;-54
2023/07/24 00:36:49;;;;;;;11.35;10.18;;;19.10;99.90;;;;;;4177065;28;20114;-55
2023/07/24 00:39:09;;;;;;;11.85;10.43;;;19.20;99.90;;;;;;4188443;28;20048;-54
2023/07/24 00:41:29;;;;;;;12.07;10.05;;;19.10;99.90;;;;;;4186495;28;20056;-54
2023/07/24 00:43:49;;;;;;;11.40;10.07;;;19.10;99.90;;;;;;4181256;28;20055;-54
2023/07/24 00:46:11;;;;;;;10.68;9.65;;;19.10;99.90;;;;;;4183229;28;20143;-54
2023/07/24 00:48:31;;;;;;;9.65;8.77;;;19.00;99.90;;;;;;4179822;28;20056;-54
2023/07/24 00:50:51;;;;;;;12.35;10.88;;;19.00;99.90;;;;;;4186786;28;20056;-54
2023/07/24 00:53:17;;;;;;;12.15;10.95;;;19.10;99.90;;;;;;4187169;28;20113;-54
2023/07/24 00:55:36;;;;;;;11.32;10.23;;;19.00;99.90;;;;;;4188856;28;20283;-54
2023/07/24 00:57:59;;;;;;;11.90;10.43;;;19.10;99.90;;;;;;4184940;28;20056;-55
2023/07/24 01:00:20;;;;;;;11.05;10.05;;;19.00;99.90;;;;;;4182301;28;20390;-58
2023/07/24 01:02:40;;;;;;;12.35;11.10;;;19.10;99.90;;;;;;4186404;28;20059;-58
2023/07/24 01:04:56;;;;;;;11.98;10.77;;;18.90;99.90;;;;;;4175766;28;20339;-59
2023/07/24 01:07:17;;;;;;;12.02;10.82;;;18.90;99.90;;;;;;4174326;28;20064;-59
2023/07/24 01:09:37;;;;;;;11.95;10.30;;;18.80;99.90;;;;;;4173845;28;20056;-59
2023/07/24 01:12:04;;;;;;;11.73;10.18;;;18.70;99.90;;;;;;4175814;28;20215;-59
2023/07/24 01:14:40;;;;;;;12.05;11.00;;;18.60;99.90;;;;;;4178944;28;20052;-59
2023/07/24 01:17:03;;;;;;;11.10;10.05;;;18.50;99.90;;;;;;4184420;28;20052;-59
2023/07/24 01:19:37;;;;;;;12.15;10.93;;;18.50;99.90;;;;;;4182642;28;20051;-59
2023/07/24 01:22:04;;;;;;;13.00;11.68;;;18.70;99.90;;;;;;4174714;28;20079;-59
2023/07/24 01:24:33;;;;;;;11.52;9.20;;;18.70;99.90;;;;;;4173800;28;20105;-59
2023/07/24 01:26:53;;;;;;;14.55;11.73;;;18.80;99.90;;;;;;4175304;28;20071;-59
2023/07/24 01:29:14;;;;;;;11.77;9.95;;;18.80;99.90;;;;;;4178102;28;20152;-59
2023/07/24 01:31:34;;;;;;;11.90;10.73;;;18.70;99.90;;;;;;4177838;28;20048;-60
2023/07/24 01:33:54;;;;;;;13.20;11.65;;;18.60;99.90;;;;;;4177221;28;20052;-59
2023/07/24 01:36:15;;;;;;;12.15;10.90;;;18.50;99.90;;;;;;4174949;28;20427;-59
2023/07/24 01:38:36;;;;;;;12.15;10.30;;;18.70;99.90;;;;;;4174474;28;20079;-59
2023/07/24 01:40:56;;;;;;;14.20;12.00;;;18.50;99.90;;;;;;4172472;28;20120;-59
2023/07/24 01:43:17;;;;;;;11.60;10.50;;;18.30;99.90;;;;;;4181927;28;20078;-59
2023/07/24 01:45:37;;;;;;;12.45;10.68;;;18.20;99.90;;;;;;4187330;28;20043;-59
2023/07/24 01:47:59;;;;;;;11.20;9.93;;;18.50;99.90;;;;;;4185206;28;20062;-59
2023/07/24 01:50:19;;;;;;;10.95;9.90;;;18.40;99.90;;;;;;4182392;28;20211;-59
2023/07/24 01:52:39;;;;;;;11.82;9.80;;;18.60;99.90;;;;;;4184236;28;20247;-59
2023/07/24 01:55:00;;;;;;;10.80;9.68;;;18.40;99.90;;;;;;4178119;28;20061;-59
2023/07/24 01:57:20;;;;;;;11.48;10.30;;;18.50;99.90;;;;;;4172911;28;20084;-59
2023/07/24 01:59:40;;;;;;;11.23;10.15;;;18.50;99.90;;;;;;4176180;28;20064;-59
2023/07/24 02:02:00;;;;;;;11.50;10.40;;;18.60;99.90;;;;;;4175803;28;20072;-59
2023/07/24 02:04:22;;;;;;;12.30;10.73;;;18.50;99.90;;;;;;4177813;28;20125;-60
2023/07/24 02:06:41;;;;;;;10.75;9.70;;;18.40;99.90;;;;;;4175556;28;20108;-59
2023/07/24 02:09:01;;;;;;;13.90;11.52;;;18.50;99.90;;;;;;4176449;28;20075;-59
2023/07/24 02:11:22;;;;;;;11.07;9.90;;;18.40;99.90;;;;;;4176346;28;20051;-59
2023/07/24 02:13:44;;;;;;;11.18;10.07;;;18.50;99.90;;;;;;4173771;28;20079;-59
2023/07/24 02:16:04;;;;;;;11.95;10.75;;;18.40;99.90;;;;;;4173120;28;20048;-59
2023/07/24 02:18:24;;;;;;;11.52;10.35;;;18.20;99.90;;;;;;4176196;28;20048;-59
2023/07/24 02:20:51;;;;;;;12.05;10.82;;;17.80;99.90;;;;;;4165835;28;20115;-59
2023/07/24 02:23:12;;;;;;;13.38;11.05;;;17.60;99.90;;;;;;4170349;28;20044;-59
2023/07/24 02:25:32;;;;;;;12.52;10.68;;;17.70;99.90;;;;;;4178992;28;20398;-59
2023/07/24 02:27:54;;;;;;;10.77;9.90;;;17.80;99.90;;;;;;4177644;28;20087;-59
2023/07/24 02:30:14;;;;;;;13.50;10.82;;;17.80;99.90;;;;;;4175772;28;20076;-59
2023/07/24 02:32:34;;;;;;;11.15;10.05;;;17.70;99.90;;;;;;4177654;28;20067;-59
2023/07/24 02:34:54;;;;;;;11.70;10.68;;;17.70;99.90;;;;;;4181200;28;20080;-59
2023/07/24 02:37:15;;;;;;;10.80;9.68;;;17.60;99.90;;;;;;4179443;28;20067;-59
2023/07/24 02:39:35;;;;;;;12.40;10.52;;;17.40;99.90;;;;;;4178626;28;20083;-59
2023/07/24 02:41:54;;;;;;;11.15;10.05;;;17.60;99.90;;;;;;4177324;28;20063;-59
2023/07/24 02:44:15;;;;;;;10.90;9.80;;;17.70;99.90;;;;;;4177100;28;20110;-59
2023/07/24 02:46:35;;;;;;;11.65;10.52;;;17.60;99.90;;;;;;4175730;28;20064;-59
2023/07/24 02:48:58;;;;;;;10.68;9.57;;;17.50;99.90;;;;;;4177476;28;20056;-59
2023/07/24 02:51:20;;;;;;;12.93;11.52;;;17.40;99.90;;;;;;4183138;28;20405;-59
2023/07/24 02:53:40;;;;;;;12.65;11.20;;;17.40;99.90;;;;;;4188339;28;20370;-59
2023/07/24 02:56:02;;;;;;;12.45;11.25;;;17.30;99.90;;;;;;4187467;28;20075;-59
2023/07/24 02:58:22;;;;;;;12.80;11.35;;;17.20;99.90;;;;;;4185175;28;20104;-59
2023/07/24 03:00:42;;;;;;;11.35;10.35;;;17.00;99.90;;;;;;4176964;28;20063;-59
2023/07/24 03:03:03;;;;;;;11.73;10.52;;;16.80;99.90;;;;;;4173900;28;20052;-59
2023/07/24 03:05:23;;;;;;;11.85;10.70;;;16.80;99.90;;;;;;4175333;28;20041;-59
2023/07/24 03:07:43;;;;;;;13.32;11.93;;;16.90;99.90;;;;;;4181808;28;20083;-59
2023/07/24 03:10:04;;;;;;;13.00;11.52;;;17.20;99.90;;;;;;4180517;28;20085;-59
2023/07/24 03:12:25;;;;;;;11.23;10.25;;;17.40;99.90;;;;;;4180693;28;20188;-59
2023/07/24 03:14:45;;;;;;;12.70;10.02;;;17.50;99.90;;;;;;4180249;28;20091;-59
2023/07/24 03:17:05;;;;;;;11.77;10.57;;;17.60;99.90;;;;;;4176510;28;20052;-59
2023/07/24 03:19:25;;;;;;;12.35;11.10;;;17.60;99.90;;;;;;4176717;28;20103;-59
2023/07/24 03:21:46;;;;;;;13.40;12.05;;;17.50;99.90;;;;;;4177411;28;20224;-59
2023/07/24 03:24:06;;;;;;;12.73;10.73;;;17.60;99.90;;;;;;4179878;28;20052;-59
2023/07/24 03:26:26;;;;;;;10.80;9.80;;;17.70;99.90;;;;;;4186405;28;20044;-59
2023/07/24 03:28:47;;;;;;;11.30;10.20;;;17.70;99.90;;;;;;4182600;28;20044;-59
2023/07/24 03:31:07;;;;;;;13.93;10.93;;;17.70;99.90;;;;;;4177386;28;20099;-59
2023/07/24 03:33:28;;;;;;;12.52;11.00;;;17.80;99.90;;;;;;4176584;28;20374;-58
2023/07/24 03:35:48;;;;;;;11.95;10.50;;;17.80;99.90;;;;;;4173939;28;20072;-59
2023/07/24 03:38:08;;;;;;;16.80;10.93;;;17.70;99.90;;;;;;4178893;28;20334;-59
2023/07/24 03:40:28;;;;;;;13.15;11.73;;;17.60;99.90;;;;;;4178805;28;20338;-59
2023/07/24 03:42:49;;;;;;;15.77;11.63;;;17.50;99.90;;;;;;4179109;28;20044;-58
2023/07/24 03:45:09;;;;;;;12.05;10.80;;;17.40;99.90;;;;;;4179195;28;20060;-59
2023/07/24 03:47:29;;;;;;;12.55;11.35;;;17.30;99.90;;;;;;4183526;28;20048;-59
2023/07/24 03:49:50;;;;;;;12.23;10.98;;;17.40;99.90;;;;;;4178954;28;20049;-59
2023/07/24 03:52:10;;;;;;;11.65;10.45;;;17.30;99.90;;;;;;4174967;28;20103;-59
2023/07/24 03:54:30;;;;;;;11.25;10.10;;;17.40;99.90;;;;;;4176256;28;20172;-59
2023/07/24 03:56:50;;;;;;;11.02;10.07;;;17.40;99.90;;;;;;4178317;28;20060;-59
2023/07/24 03:59:11;;;;;;;12.93;11.40;;;17.50;99.90;;;;;;4180516;28;20370;-59
2023/07/24 04:01:31;;;;;;;13.80;11.07;;;17.50;99.90;;;;;;4183399;28;20083;-59
2023/07/24 04:03:52;;;;;;;13.68;10.55;;;17.50;99.90;;;;;;4185460;28;20048;-59
2023/07/24 04:06:12;;;;;;;12.88;11.45;;;17.40;99.90;;;;;;4179600;28;20044;-59
2023/07/24 04:08:32;;;;;;;12.32;11.07;;;17.20;99.90;;;;;;4174414;28;20052;-59
2023/07/24 04:10:52;;;;;;;12.27;10.35;;;17.20;99.90;;;;;;4180889;28;20064;-59
2023/07/24 04:13:12;;;;;;;11.05;9.32;;;17.30;99.90;;;;;;4177921;28;20092;-59
2023/07/24 04:15:32;;;;;;;11.27;10.15;;;17.30;99.90;;;;;;4180379;28;20041;-59
2023/07/24 04:17:52;;;;;;;12.40;11.13;;;17.40;99.90;;;;;;4179343;28;20065;-59
2023/07/24 04:20:12;;;;;;;12.15;10.95;;;17.50;99.90;;;;;;4180389;28;20454;-59
2023/07/24 04:22:33;;;;;;;11.18;10.07;;;17.60;99.90;;;;;;4176722;28;20040;-59
2023/07/24 04:24:53;;;;;;;10.20;9.20;;;17.80;99.90;;;;;;4174292;28;20056;-59
2023/07/24 04:27:13;;;;;;;11.45;9.82;;;17.80;99.90;;;;;;4174438;28;20040;-59
2023/07/24 04:29:33;;;;;;;10.65;9.68;;;17.70;99.90;;;;;;4178505;28;20048;-59
2023/07/24 04:31:53;;;;;;;9.82;8.98;;;17.60;99.90;;;;;;4182745;28;20362;-59
2023/07/24 04:34:14;;;;;;;11.00;9.88;;;17.60;99.90;;;;;;4180914;28;20044;-59
2023/07/24 04:36:35;;;;;;;13.70;10.63;;;17.60;99.90;;;;;;4179166;28;20047;-59
2023/07/24 04:38:54;;;;;;;12.77;9.82;;;17.70;99.90;;;;;;4176761;28;20044;-59
2023/07/24 04:41:15;;;;;;;14.10;10.00;;;17.80;99.90;;;;;;4173065;28;20114;-59
2023/07/24 04:43:35;;;;;;;10.43;9.43;;;18.00;99.90;;;;;;4180121;28;20096;-54
2023/07/24 04:45:55;;;;;;;10.68;9.65;;;18.00;99.90;;;;;;4178799;28;20245;-55
2023/07/24 04:48:15;;;;;;;9.00;8.32;;;18.10;99.90;;;;;;4180941;28;20052;-54
2023/07/24 04:50:36;;;;;;;10.00;9.00;;;18.30;99.90;;;;;;4182658;28;20083;-55
2023/07/24 04:52:56;;;;;;;9.77;8.48;;;18.40;99.90;;;;;;4180544;28;20084;-55
2023/07/24 04:55:16;;;;;;;12.57;10.27;;;18.40;99.90;;;;;;4175825;28;20047;-55
2023/07/24 04:57:37;;;;;;;11.70;10.50;;;18.40;99.90;;;;;;4173397;28;20044;-55
2023/07/24 04:59:57;;;;;;;10.23;9.23;;;18.30;99.90;;;;;;4173937;28;20144;-55
2023/07/24 05:02:17;;;;;;;9.93;8.93;;;18.30;99.90;;;;;;4177382;28;20136;-55
2023/07/24 05:04:37;;;;;;;13.70;10.75;;;18.30;99.90;;;;;;4180290;28;20497;-55
2023/07/24 05:06:57;;;;;;;15.77;10.85;;;18.20;99.90;;;;;;4180041;28;20119;-56
2023/07/24 05:09:18;;;;;;;12.50;10.98;;;18.20;99.90;;;;;;4185036;28;20060;-55
2023/07/24 05:11:38;;;;;;;11.85;10.23;;;18.20;99.90;;;;;;4184001;28;20298;-55
2023/07/24 05:13:58;;;;;;;11.82;10.60;;;18.20;99.90;;;;;;4179792;28;20053;-55
2023/07/24 05:16:18;;;;;;;14.15;10.73;;;18.20;99.90;;;;;;4177855;28;20060;-56
2023/07/24 05:18:38;;;;;;;14.25;10.07;;;18.30;99.90;;;;;;4179921;28;20235;-55
2023/07/24 05:21:00;;;;;;;12.75;9.90;;;18.40;99.90;;;;;;4179991;28;20095;-56
2023/07/24 05:23:20;;;;;;;12.65;9.75;;;18.50;99.90;;;;;;4179837;28;20105;-56
2023/07/24 05:25:41;;;;;;;11.07;9.80;;;18.50;99.90;;;;;;4176694;28;20416;-56
2023/07/24 05:28:01;;;;;;;10.18;9.18;;;18.60;99.90;;;;;;4177161;28;20099;-56
2023/07/24 05:30:28;;;;;;;12.07;9.95;;;18.50;99.90;;;;;;4173414;28;20087;-56
2023/07/24 05:32:49;;;;;;;13.75;9.73;;;18.60;99.90;;;;;;4174687;28;20048;-56
2023/07/24 05:35:09;;;;;;;12.13;10.52;;;18.60;99.90;;;;;;4179969;28;20049;-55
2023/07/24 05:37:28;;;;;;;16.25;9.80;;;18.70;99.90;;;;;;4183188;28;20045;-55
2023/07/24 05:39:49;;;;;;;10.50;9.38;;;18.80;99.90;;;;;;4180275;28;20044;-55
2023/07/24 05:42:10;;;;;;;13.23;8.90;;;19.00;99.90;;;;;;4176768;28;20044;-55
2023/07/24 05:44:29;;;;;;;13.30;10.50;;;19.10;99.90;;;;;;4174882;28;20060;-55
2023/07/24 05:46:50;;;;;;;13.82;9.65;;;19.20;99.90;;;;;;4173380;28;20052;-55
2023/07/24 05:49:09;;;;;;;13.48;10.18;;;19.20;99.90;;;;;;4177975;28;20113;-56
2023/07/24 05:51:30;;;;;;;12.52;9.57;;;19.30;99.90;;;;;;4175738;28;20040;-56
2023/07/24 05:53:50;;;;;;;10.60;9.45;;;19.30;99.90;;;;;;4178176;28;20083;-55
2023/07/24 05:56:10;;;;;;;10.35;9.25;;;19.40;99.90;;;;;;4180911;28;20055;-56
2023/07/24 05:58:30;;;;;;;10.60;9.63;;;19.40;99.90;;;;;;4178949;28;20378;-56
2023/07/24 06:00:50;;;;;;;11.20;10.07;;;19.40;99.90;;;;;;4181264;28;20049;-56
2023/07/24 06:03:10;;;;;;;9.90;9.00;;;19.40;99.90;;;;;;4178792;28;20128;-55
2023/07/24 06:05:30;;;;;;;9.60;8.85;;;19.40;99.90;;;;;;4178190;28;20099;-55
2023/07/24 06:07:50;;;;;;;10.63;9.23;;;19.40;99.90;;;;;;4181020;28;20048;-56
2023/07/24 06:10:10;;;;;;;12.32;8.48;;;19.40;99.90;;;;;;4169300;28;20368;-56
2023/07/24 06:12:30;;;;;;;11.48;9.70;;;19.50;99.90;;;;;;4187089;28;20056;-56
2023/07/24 06:14:50;;;;;;;12.88;10.80;;;19.50;99.90;;;;;;4190064;28;20078;-56
2023/07/24 06:17:11;;;;;;;10.88;9.50;;;19.60;99.90;;;;;;4188814;28;20052;-56
2023/07/24 06:19:31;;;;;;;13.85;10.10;;;19.80;99.90;;;;;;4178335;28;20052;-55
2023/07/24 06:21:50;;;;;;;13.50;10.88;;;20.00;99.90;;;;;;4178833;28;20107;-56
2023/07/24 06:24:12;;;;;;;13.43;9.50;;;20.10;99.90;;;;;;4180588;28;20052;-56
2023/07/24 06:26:31;;;;;;;11.50;10.23;;;20.20;99.90;;;;;;4169084;28;20048;-56
2023/07/24 06:28:52;;;;;;;13.57;9.25;;;20.50;99.90;;;;;;4184140;28;20079;-55
2023/07/24 06:31:11;;;;;;;10.07;9.10;;;20.70;99.90;;;;;;4183259;28;20248;-55
2023/07/24 06:33:32;;;;;;;12.82;9.02;;;20.70;99.90;;;;;;4180352;28;20391;-56
2023/07/24 06:35:52;;;;;;;9.40;8.18;;;20.90;99.90;;;;;;4178559;28;20043;-55
2023/07/24 06:38:12;;;;;;;11.48;8.02;;;21.00;99.90;;;;;;4179023;28;20049;-56
2023/07/24 06:40:32;;;;;;;9.98;7.63;;;21.10;99.90;;;;;;4188782;28;20052;-56
2023/07/24 06:42:52;;;;;;;11.77;8.85;;;21.30;99.90;;;;;;4188266;28;20040;-55
2023/07/24 06:45:12;;;;;;;12.70;8.68;;;21.50;99.90;;;;;;4185855;28;20056;-56
2023/07/24 06:47:32;;;;;;;9.07;6.57;;;22.00;99.90;;;;;;4183056;28;20407;-56
2023/07/24 06:49:57;;;;;;;11.65;7.70;;;22.40;99.90;;;;;;4180885;28;20074;-56
2023/07/24 06:52:17;;;;;;;8.65;6.75;;;22.60;99.90;;;;;;4186279;28;20040;-56
2023/07/24 06:54:37;;;;;;;7.70;6.93;;;23.00;99.90;;;;;;4179410;28;20052;-56
2023/07/24 06:56:57;;;;;;;5.47;5.07;;;23.30;99.90;;;;;;4181080;28;20045;-56
2023/07/24 06:59:17;;;;;;;7.25;6.55;;;23.40;99.90;;;;;;4182954;28;20048;-56
2023/07/24 07:01:37;;;;;;;8.52;6.25;;;23.50;99.90;;;;;;4182386;28;20048;-55
2023/07/24 07:03:57;;;;;;;5.95;5.32;;;23.50;99.90;;;;;;4181958;28;20092;-56
2023/07/24 07:06:17;;;;;;;7.47;5.93;;;23.80;99.90;;;;;;4180826;28;20060;-56
2023/07/24 07:08:40;;;;;;;;;;;24.00;99.90;;;;;;4178392;28;20064;-56
2023/07/24 07:11:00;;;;;;;7.65;5.90;;;24.20;99.90;;;;;;4174922;28;19963;-56
2023/07/24 07:13:20;;;;;;;4.85;4.47;;;24.50;99.90;;;;;;4178580;28;20091;-56
2023/07/24 07:15:41;;;;;;;7.95;4.90;;;24.50;99.90;;;;;;4179602;28;20232;-56
2023/07/24 07:18:01;;;;;;;6.13;4.28;;;24.40;99.90;;;;;;4183500;28;20060;-56
2023/07/24 07:20:21;;;;;;;10.02;5.10;;;24.50;99.90;;;;;;4187346;28;20086;-56
2023/07/24 07:22:41;;;;;;;4.95;3.53;;;24.70;99.90;;;;;;4177545;28;20052;-55
2023/07/24 07:25:01;;;;;;;6.15;5.43;;;25.20;99.90;;;;;;4174803;28;20148;-56
2023/07/24 07:27:21;;;;;;;4.40;4.10;;;25.70;99.90;;;;;;4175477;28;20048;-56
2023/07/24 07:29:41;;;;;;;9.90;4.18;;;25.60;99.90;;;;;;4179049;28;20079;-56
2023/07/24 07:32:01;;;;;;;5.15;4.63;;;25.30;99.90;;;;;;4180507;28;20044;-56
2023/07/24 07:34:21;;;;;;;4.90;4.57;;;25.00;99.90;;;;;;4179965;28;20075;-55
2023/07/24 07:36:41;;;;;;;5.47;5.07;;;24.80;99.90;;;;;;4179346;28;20271;-56
2023/07/24 07:39:02;;;;;;;5.45;4.60;;;24.90;99.90;;;;;;4176991;28;20334;-56
2023/07/24 07:41:22;;;;;;;7.88;4.80;;;24.90;99.90;;;;;;4176614;28;20060;-56
2023/07/24 07:43:42;;;;;;;5.65;5.15;;;25.00;99.90;;;;;;4176408;28;20312;-56
2023/07/24 07:46:03;;;;;;;5.43;3.75;;;25.30;99.90;;;;;;4187051;28;20052;-56
2023/07/24 07:48:23;;;;;;;5.82;5.22;;;25.40;99.90;;;;;;4184883;28;20076;-56
2023/07/24 07:50:42;;;;;;;4.63;4.15;;;25.50;99.90;;;;;;4180180;28;20041;-56
2023/07/24 07:53:02;;;;;;;5.45;4.70;;;25.60;99.90;;;;;;4187656;28;20093;-56
2023/07/24 07:55:22;;;;;;;6.40;4.18;;;25.70;99.90;;;;;;4184099;28;20114;-56
2023/07/24 07:57:43;;;;;;;6.95;3.97;;;26.10;99.90;;;;;;4179324;28;20386;-57
2023/07/24 08:00:04;;;;;;;6.25;3.58;;;26.30;99.90;;;;;;4172790;28;20236;-56
2023/07/24 08:02:24;;;;;;;5.55;2.53;;;26.60;99.80;;;;;;4178133;28;20236;-56
2023/07/24 08:04:44;;;;;;;4.50;3.53;;;26.90;99.80;;;;;;4180899;28;20100;-56
2023/07/24 08:07:04;;;;;;;3.58;2.20;;;27.20;99.50;;;;;;4180492;28;20048;-56
2023/07/24 08:09:24;;;;;;;6.57;2.00;;;27.60;99.10;;;;;;4179720;28;20125;-56
2023/07/24 08:11:44;;;;;;;7.47;2.80;;;27.50;97.40;;;;;;4176441;28;20068;-56
2023/07/24 08:14:05;;;;;;;13.52;3.42;;;27.70;97.70;;;;;;4174414;28;20071;-56
2023/07/24 08:16:24;;;;;;;4.75;1.95;;;27.50;97.40;;;;;;4173681;28;20053;-56
2023/07/24 08:18:48;;;;;;;1.75;1.52;;;27.80;96.70;;;;;;4177591;28;20079;-56
2023/07/24 08:21:08;;;;;;;4.75;1.88;;;27.80;96.10;;;;;;4179277;28;20049;-56
2023/07/24 08:23:28;;;;;;;7.20;2.28;;;27.20;96.30;;;;;;4186420;28;20379;-56
2023/07/24 08:25:53;;;;;;;5.43;2.08;;;26.80;96.70;;;;;;4178689;28;20052;-57
2023/07/24 08:28:13;;;;;;;2.58;2.13;;;27.20;97.00;;;;;;4177079;28;20056;-55
2023/07/24 08:30:36;;;;;;;6.85;3.10;;;27.30;96.00;;;;;;4173598;28;20048;-55
2023/07/24 08:32:56;;;;;;;5.18;2.58;;;27.40;97.30;;;;;;4175125;28;20049;-56
2023/07/24 08:35:17;;;;;;;5.97;2.35;;;27.20;97.50;;;;;;4178187;28;20064;-56
2023/07/24 08:37:37;;;;;;;1.73;1.63;;;27.20;96.50;;;;;;4181454;28;20112;-56
2023/07/24 08:39:57;;;;;;;2.75;1.70;;;27.10;95.80;;;;;;4179398;28;20159;-56
2023/07/24 08:42:20;;;;;;;7.13;2.15;;;27.30;95.10;;;;;;4179777;28;20331;-56
2023/07/24 08:44:41;;;;;;;9.10;1.58;;;27.60;95.40;;;;;;4163282;28;20044;-55
2023/07/24 08:47:03;;;;;;;3.83;1.80;;;27.80;95.20;;;;;;4174707;28;20129;-56
2023/07/24 08:49:23;;;;;;;3.10;1.50;;;27.90;95.10;;;;;;4173830;28;20043;-56
2023/07/24 08:51:44;;;;;;;3.15;1.85;;;27.90;95.60;;;;;;4174481;28;20107;-56
2023/07/24 08:54:05;;;;;;;4.25;1.30;;;28.00;95.30;;;;;;4165540;28;20125;-56
2023/07/24 08:56:25;;;;;;;2.67;1.33;;;28.20;93.40;;;;;;4188860;28;20047;-56
2023/07/24 08:58:45;;;;;;;3.53;1.13;;;28.30;95.10;;;;;;4182413;28;20419;-56
2023/07/24 09:01:06;;;;;;;4.40;1.20;;;28.50;94.70;;;;;;4186317;28;20044;-57
2023/07/24 09:03:27;;;;;;;2.30;1.13;;;28.60;93.70;;;;;;4174386;28;20045;-56
2023/07/24 09:05:48;;;;;;;8.15;1.65;;;28.90;93.80;;;;;;4177537;28;20132;-57
2023/07/24 09:08:08;;;;;;;3.38;1.63;;;29.20;93.00;;;;;;4180311;28;20040;-56
2023/07/24 09:10:28;;;;;;;8.38;1.52;;;29.30;92.90;;;;;;4165600;28;20076;-56
2023/07/24 09:12:49;;;;;;;2.90;1.65;;;29.30;93.30;;;;;;4180488;28;20057;-56
2023/07/24 09:15:09;;;;;;;1.73;0.90;;;29.60;94.00;;;;;;4178776;28;20044;-56
2023/07/24 09:17:29;;;;;;;3.47;1.10;;;29.80;92.90;;;;;;4176614;28;20043;-57
2023/07/24 09:19:57;;;;;;;3.85;1.15;;;29.60;91.30;;;;;;4172071;28;20112;-56
2023/07/24 09:22:19;;;;;;;7.32;1.05;;;29.90;91.20;;;;;;4173104;28;20048;-56
2023/07/24 09:24:57;;;;;;;10.90;1.58;;;30.20;91.30;;;;;;4178141;28;20052;-56
2023/07/24 09:27:18;;;;;;;3.97;1.10;;;30.40;91.60;;;;;;4179056;28;20059;-56
2023/07/24 09:29:38;;;;;;;4.28;1.38;;;30.40;91.60;;;;;;4180609;28;20083;-56
2023/07/24 09:31:59;;;;;;;6.20;1.00;;;30.70;92.10;;;;;;4177840;28;20401;-57
2023/07/24 09:34:20;;;;;;;6.38;1.27;;;31.20;92.90;;;;;;4176645;28;20068;-56
2023/07/24 09:36:42;;;;;;;4.55;1.88;;;30.80;90.00;;;;;;4173725;28;20264;-56
2023/07/24 09:39:06;;;;;;;4.85;1.00;;;30.80;91.90;;;;;;4174730;28;20117;-56
2023/07/24 09:41:29;;;;;;;4.10;0.95;;;31.30;90.70;;;;;;4180655;28;20094;-56
2023/07/24 09:43:58;;;;;;;8.02;1.50;;;31.50;91.90;;;;;;4179434;28;20044;-56
2023/07/24 09:46:18;;;;;;;8.07;1.50;;;31.30;90.50;;;;;;4178388;28;20056;-56
2023/07/24 09:48:39;;;;;;;6.15;1.10;;;30.60;90.10;;;;;;4178700;28;20051;-56
2023/07/24 09:51:19;;;;;;;9.75;1.38;;;31.00;91.80;;;;;;4174252;28;20413;-56
2023/07/24 09:53:45;;;;;;;3.63;1.00;;;31.30;90.90;;;;;;4173274;28;20421;-56
2023/07/24 09:56:08;;;;;;;8.25;1.23;;;30.90;90.30;;;;;;4175163;28;20289;-56
2023/07/24 09:58:29;;;;;;;10.35;1.30;;;31.20;90.10;;;;;;4177283;28;20061;-57
2023/07/24 10:00:50;;;;;;;10.70;0.90;;;31.50;90.20;;;;;;4179948;28;20053;-56
2023/07/24 10:03:10;;;;;;;11.02;1.65;;;31.50;90.10;;;;;;4179978;28;20057;-56
2023/07/24 10:05:30;;;;;;;7.55;1.50;;;31.90;90.10;;;;;;4184834;28;20048;-56
2023/07/24 10:07:51;;;;;;;12.27;1.33;;;31.70;89.50;;;;;;4179748;28;20049;-57
2023/07/24 10:10:12;;;;;;;10.55;1.35;;;31.20;90.20;;;;;;4175169;28;20063;-56
2023/07/24 10:12:33;;;;;;;5.85;1.35;;;31.20;89.50;;;;;;4182363;28;20113;-56
2023/07/24 10:14:55;;;;;;;10.88;1.30;;;31.20;90.70;;;;;;4181166;28;20056;-56
2023/07/24 10:17:44;;;;;;;10.98;1.00;;;31.10;90.50;;;;;;4181997;28;20040;-56
2023/07/24 10:20:10;;;;;;;6.25;1.20;;;31.00;89.50;;;;;;4178634;28;20109;-56
2023/07/24 10:22:30;;;;;;;4.00;1.10;;;31.20;88.10;;;;;;4176219;28;20086;-56
2023/07/24 10:24:50;;;;;;;6.30;1.20;;;31.60;90.90;;;;;;4172816;28;20371;-56
2023/07/24 10:27:11;;;;;;;5.82;1.17;;;31.40;89.50;;;;;;4176469;28;20236;-57
2023/07/24 10:29:35;;;;;;;12.20;1.73;;;31.20;90.10;;;;;;4184690;28;20103;-56
2023/07/24 10:31:55;;;;;;;5.18;0.98;;;31.50;90.10;;;;;;4168771;28;20049;-56
2023/07/24 10:34:16;;;;;;;4.75;1.10;;;31.30;89.30;;;;;;4180465;28;20044;-56
2023/07/24 10:36:38;;;;;;;7.13;1.00;;;31.30;90.20;;;;;;4178382;28;20048;-55
2023/07/24 10:38:57;;;;;;;;;;;31.20;90.20;;;;;;4176588;28;20049;-56
2023/07/24 10:41:17;;;;;;;10.10;1.70;;;31.40;91.20;;;;;;4172846;28;19970;-56
2023/07/24 10:43:46;;;;;;;8.85;1.20;;;31.50;90.30;;;;;;4172255;28;20375;-56
2023/07/24 10:46:08;;;;;;;8.65;1.20;;;31.70;91.70;;;;;;4183915;28;20055;-56
2023/07/24 10:48:28;;;;;;;10.10;1.67;;;32.10;90.10;;;;;;4181607;28;20127;-57
2023/07/24 10:50:50;;;;;;;7.78;1.02;;;31.90;90.20;;;;;;4182714;28;20040;-57
2023/07/24 10:53:21;;;;;;;8.98;1.58;;;31.60;91.60;;;;;;4180794;28;20155;-56
2023/07/24 10:55:42;;;;;;;11.50;1.23;;;31.80;91.20;;;;;;4177632;28;20110;-56
2023/07/24 10:58:02;;;;;;;5.50;1.08;;;32.00;92.00;;;;;;4176385;28;20091;-56
2023/07/24 11:00:23;;;;;;;9.43;1.40;;;32.50;91.00;;;;;;4175436;28;20080;-57
2023/07/24 11:02:43;;;;;;;8.40;1.20;;;32.50;91.90;;;;;;4180261;28;20091;-56
2023/07/24 11:05:03;;;;;;;6.18;2.08;;;32.60;91.50;;;;;;4180975;28;20079;-56
2023/07/24 11:07:24;;;;;;;10.70;1.58;;;32.50;90.90;;;;;;4180115;28;20078;-57
2023/07/24 11:09:44;;;;;;;6.25;1.33;;;32.30;90.50;;;;;;4179318;28;20048;-56
2023/07/24 11:12:15;;;;;;;9.25;1.33;;;32.30;90.90;;;;;;4178619;28;20079;-56
2023/07/24 11:14:35;;;;;;;14.75;1.45;;;32.00;91.20;;;;;;4176844;28;20100;-56
2023/07/24 11:16:55;;;;;;;10.88;1.65;;;32.40;90.80;;;;;;4175698;28;20044;-56
2023/07/24 11:19:23;;;;;;;11.55;1.20;;;31.80;90.50;;;;;;4177787;28;20047;-56
2023/07/24 11:21:42;;;;;;;11.43;1.63;;;31.90;91.30;;;;;;4182733;28;20051;-56
2023/07/24 11:24:09;;;;;;;7.80;1.30;;;32.00;91.10;;;;;;4182734;28;20083;-56
2023/07/24 11:26:28;;;;;;;7.40;1.65;;;32.20;91.30;;;;;;4180146;28;20040;-57
2023/07/24 11:28:50;;;;;;;6.22;1.95;;;32.40;90.30;;;;;;4176869;28;20044;-57
2023/07/24 11:31:10;;;;;;;13.98;2.50;;;32.40;90.90;;;;;;4176400;28;20056;-56
2023/07/24 11:33:31;;;;;;;6.33;1.60;;;32.60;90.80;;;;;;4175313;28;20049;-56
2023/07/24 11:35:51;;;;;;;3.72;0.80;;;32.80;90.50;;;;;;4178985;28;20393;-56
2023/07/24 11:38:12;;;;;;;7.13;1.20;;;32.80;90.30;;;;;;4184940;28;20116;-57
2023/07/24 11:40:33;;;;;;;12.10;1.80;;;32.80;90.70;;;;;;4180960;28;20044;-57
2023/07/24 11:42:53;;;;;;;9.23;2.17;;;32.80;90.80;;;;;;4180421;28;20049;-56
2023/07/24 11:45:13;;;;;;;5.63;1.08;;;33.10;90.10;;;;;;4176676;28;20052;-56
2023/07/24 11:47:42;;;;;;;3.92;1.30;;;33.20;91.10;;;;;;4174493;28;20112;-57
2023/07/24 11:50:02;;;;;;;7.72;1.73;;;33.00;90.30;;;;;;4174962;28;20048;-56
2023/07/24 11:52:22;;;;;;;8.73;1.48;;;33.40;90.80;;;;;;4178078;28;20088;-57
2023/07/24 11:54:43;;;;;;;17.35;1.63;;;33.30;90.50;;;;;;4187622;28;20224;-57
2023/07/24 11:57:03;;;;;;;10.25;1.30;;;33.50;90.30;;;;;;4182463;28;20079;-57
2023/07/24 11:59:24;;;;;;;9.80;1.73;;;33.70;91.00;;;;;;4179914;28;20060;-56
2023/07/24 12:01:48;;;;;;;4.15;1.30;;;34.00;89.50;;;;;;4177981;28;20064;-56
2023/07/24 12:04:08;;;;;;;6.97;1.20;;;33.70;91.30;;;;;;4174902;28;20052;-56
2023/07/24 12:06:31;;;;;;;6.78;1.30;;;34.00;90.40;;;;;;4174021;28;20227;-56